createdAt,value
2019-05-23T04:42:40.285Z,37.60
2019-05-23T04:45:10.201Z,30.17
2019-05-23T04:47:40.712Z,30.90
2019-05-23T04:50:13.480Z,29.87
2019-05-23T04:52:42.918Z,33.47
2019-05-23T04:55:15.441Z,35.60
2019-05-23T04:57:48.015Z,28.43
2019-05-23T05:00:18.836Z,25.97
2019-05-23T05:02:48.933Z,26.63
2019-05-23T05:05:19.323Z,30.50
2019-05-23T05:07:48.804Z,28.80
2019-05-23T05:10:23.583Z,27.73
2019-05-23T05:12:55.564Z,26.27
2019-05-23T05:15:26.035Z,29.57
2019-05-23T05:17:56.019Z,28.30
2019-05-23T05:20:26.405Z,28.60
2019-05-23T05:22:56.065Z,27.63
2019-05-23T05:25:28.084Z,30.43
2019-05-23T05:27:58.386Z,31.03
2019-05-23T05:30:31.473Z,27.60
2019-05-23T05:33:01.223Z,29.77
2019-05-23T05:35:32.591Z,30.83
2019-05-23T05:38:04.902Z,29.77
2019-05-23T05:40:35.271Z,26.40
2019-05-23T05:43:05.573Z,24.83
2019-05-23T05:45:34.842Z,26.63
2019-05-23T05:48:05.033Z,24.53
2019-05-23T05:50:34.918Z,26.23
2019-05-23T05:53:04.834Z,20.97
2019-05-23T05:55:34.035Z,20.97
2019-05-23T05:58:04.366Z,22.57
2019-05-23T06:00:39.719Z,20.87
2019-05-23T06:03:09.820Z,22.30
2019-05-23T06:05:58.670Z,18.73
2019-05-23T06:08:30.589Z,19.40
2019-05-23T06:11:00.300Z,18.77
2019-05-23T06:13:30.232Z,20.77
2019-05-23T06:15:59.493Z,18.20
2019-05-23T06:18:29.941Z,18.77
2019-05-23T06:21:01.565Z,19.97
2019-05-23T06:23:31.170Z,18.60
2019-05-23T06:26:00.428Z,17.50
2019-05-23T06:28:31.605Z,16.87
2019-05-23T06:31:04.019Z,14.03
2019-05-23T06:33:34.819Z,12.67
2019-05-23T06:36:05.971Z,15.07
2019-05-23T06:38:36.169Z,15.77
2019-05-23T06:41:05.774Z,15.13
2019-05-23T06:43:39.091Z,13.83
2019-05-23T06:46:09.058Z,15.60
2019-05-23T06:48:38.490Z,15.10
2019-05-23T06:51:07.708Z,9.13
2019-05-23T06:53:36.956Z,9.63
2019-05-23T06:56:08.647Z,9.03
2019-05-23T06:58:38.485Z,9.77
2019-05-23T07:01:10.609Z,10.67
2019-05-23T07:03:43.210Z,9.07
2019-05-23T07:06:14.909Z,9.70
2019-05-23T07:08:45.552Z,8.73
2019-05-23T07:11:20.481Z,6.90
2019-05-23T07:13:50.647Z,9.70
2019-05-23T07:16:19.949Z,11.07
2019-05-23T07:18:49.160Z,9.77
2019-05-23T07:21:18.482Z,7.00
2019-05-23T07:23:48.168Z,9.60
2019-05-23T07:26:17.720Z,8.13
2019-05-23T07:28:47.411Z,6.03
2019-05-23T07:31:18.580Z,7.97
2019-05-23T07:34:01.053Z,7.55
2019-05-23T07:36:19.328Z,7.42
2019-05-23T07:38:48.564Z,5.25
2019-05-23T07:41:18.219Z,8.85
2019-05-23T07:43:48.064Z,7.35
2019-05-23T07:46:17.747Z,6.30
2019-05-23T07:48:46.932Z,7.78
2019-05-23T07:51:16.437Z,6.25
2019-05-23T07:54:12.251Z,6.60
2019-05-23T07:56:42.936Z,6.28
2019-05-23T07:59:12.489Z,6.15
2019-05-23T08:01:45.101Z,7.40
2019-05-23T08:04:22.675Z,7.87
2019-05-23T08:06:48.921Z,7.45
2019-05-23T08:09:17.910Z,8.10
2019-05-23T08:11:49.035Z,6.78
2019-05-23T08:14:19.000Z,9.78
2019-05-23T08:16:49.287Z,10.08
2019-05-23T08:19:22.513Z,8.38
2019-05-23T08:21:51.775Z,8.55
2019-05-23T08:24:23.102Z,9.68
2019-05-23T08:26:58.323Z,10.40
2019-05-23T08:29:28.657Z,8.00
2019-05-23T08:31:58.442Z,7.78
2019-05-23T08:34:40.893Z,6.15
2019-05-23T08:37:00.165Z,6.42
2019-05-23T08:39:30.758Z,6.17
2019-05-23T08:42:03.798Z,5.35
2019-05-23T08:44:36.295Z,5.12
2019-05-23T08:47:08.198Z,5.28
2019-05-23T08:49:38.471Z,7.08
2019-05-23T08:52:10.237Z,6.60
2019-05-23T08:54:39.824Z,6.33
2019-05-23T08:57:09.369Z,6.67
2019-05-23T08:59:39.635Z,7.65
2019-05-23T09:02:11.261Z,8.18
2019-05-23T09:05:01.329Z,4.83
2019-05-23T09:07:12.519Z,6.22
2019-05-23T09:09:44.513Z,5.17
2019-05-23T09:12:15.778Z,5.65
2019-05-23T09:14:46.148Z,5.40
2019-05-23T09:17:15.539Z,5.42
2019-05-23T09:19:44.896Z,5.92
2019-05-23T09:22:14.165Z,6.25
2019-05-23T09:24:43.910Z,4.97
2019-05-23T09:27:15.394Z,6.62
2019-05-23T09:29:45.421Z,7.47
2019-05-23T09:32:14.685Z,7.00
2019-05-23T09:34:43.984Z,6.27
2019-05-23T09:37:13.880Z,6.63
2019-05-23T09:39:43.721Z,6.83
2019-05-23T09:42:13.021Z,6.30
2019-05-23T09:44:42.246Z,6.13
2019-05-23T09:47:13.291Z,5.00
2019-05-23T09:49:53.816Z,4.77
2019-05-23T09:52:17.982Z,5.47
2019-05-23T09:54:47.331Z,5.00
2019-05-23T09:57:17.165Z,4.73
2019-05-23T09:59:46.410Z,5.17
2019-05-23T10:02:17.054Z,4.83
2019-05-23T10:04:46.297Z,6.73
2019-05-23T10:07:16.497Z,6.00
2019-05-23T10:09:46.103Z,5.27
2019-05-23T10:12:27.550Z,4.97
2019-05-23T10:14:56.595Z,5.57
2019-05-23T10:17:26.921Z,6.10
2019-05-23T10:19:56.581Z,5.17
2019-05-23T10:22:25.836Z,5.87
2019-05-23T10:24:55.155Z,6.07
2019-05-23T10:27:26.274Z,6.17
2019-05-23T10:29:55.451Z,6.27
2019-05-23T10:32:25.309Z,5.63
2019-05-23T10:34:54.972Z,4.43
2019-05-23T10:37:25.011Z,6.03
2019-05-23T10:39:55.802Z,5.20
2019-05-23T10:42:31.345Z,6.30
2019-05-23T10:45:00.564Z,6.80
2019-05-23T10:47:30.200Z,5.07
2019-05-23T10:50:00.156Z,5.13
2019-05-23T10:52:35.682Z,6.03
2019-05-23T10:55:06.545Z,5.87
2019-05-23T10:57:40.188Z,5.97
2019-05-23T11:00:11.038Z,4.83
2019-05-23T11:02:41.060Z,6.63
2019-05-23T11:05:13.918Z,4.40
2019-05-23T11:07:42.685Z,4.83
2019-05-23T11:10:13.475Z,5.67
2019-05-23T11:12:45.316Z,6.63
2019-05-23T11:15:17.337Z,5.40
2019-05-23T11:17:48.550Z,6.13
2019-05-23T11:20:18.740Z,7.73
2019-05-23T11:22:48.282Z,5.57
2019-05-23T11:25:19.551Z,4.43
2019-05-23T11:27:48.894Z,6.83
2019-05-23T11:30:26.505Z,7.33
2019-05-23T11:33:01.115Z,5.27
2019-05-23T11:35:31.104Z,6.90
2019-05-23T11:38:00.360Z,6.87
2019-05-23T11:40:33.489Z,5.27
2019-05-23T11:43:00.851Z,6.83
2019-05-23T11:45:33.256Z,5.40
2019-05-23T11:48:03.188Z,4.87
2019-05-23T11:50:33.035Z,5.10
2019-05-23T11:53:03.018Z,6.70
2019-05-23T11:55:32.512Z,5.43
2019-05-23T11:58:01.794Z,4.53
2019-05-23T12:01:10.190Z,4.97
2019-05-23T12:03:40.197Z,5.60
2019-05-23T12:06:09.483Z,6.80
2019-05-23T12:08:39.046Z,6.23
2019-05-23T12:11:08.492Z,6.07
2019-05-23T12:13:40.559Z,5.53
2019-05-23T12:16:11.252Z,5.53
2019-05-23T12:18:40.528Z,6.67
2019-05-23T12:21:10.099Z,6.53
2019-05-23T12:23:39.395Z,6.13
2019-05-23T12:26:08.663Z,4.77
2019-05-23T12:28:37.954Z,5.30
2019-05-23T12:31:09.712Z,5.90
2019-05-23T12:33:40.772Z,7.00
2019-05-23T12:36:12.165Z,5.50
2019-05-23T12:38:41.485Z,4.77
2019-05-23T12:41:12.815Z,5.77
2019-05-23T12:43:42.058Z,7.13
2019-05-23T12:46:11.761Z,4.47
2019-05-23T12:48:59.960Z,3.90
2019-05-23T12:51:32.845Z,5.00
2019-05-23T12:54:03.898Z,6.63
2019-05-23T12:56:36.343Z,5.63
2019-05-23T12:59:06.576Z,5.17
2019-05-23T13:01:37.266Z,5.47
2019-05-23T13:04:10.091Z,4.87
2019-05-23T13:06:38.976Z,4.43
2019-05-23T13:09:10.227Z,3.57
2019-05-23T13:11:39.870Z,4.90
2019-05-23T13:14:10.309Z,6.13
2019-05-23T13:16:43.226Z,3.83
2019-05-23T13:19:12.460Z,5.67
2019-05-23T13:21:42.021Z,4.97
2019-05-23T13:24:11.225Z,4.23
2019-05-23T13:26:40.827Z,5.07
2019-05-23T13:29:10.776Z,4.13
2019-05-23T13:31:40.031Z,5.23
2019-05-23T13:34:09.798Z,3.23
2019-05-23T13:36:39.031Z,3.40
2019-05-23T13:39:11.616Z,5.60
2019-05-23T13:41:41.176Z,2.93
2019-05-23T13:44:29.641Z,4.87
2019-05-23T13:46:42.891Z,3.53
2019-05-23T13:49:12.441Z,4.47
2019-05-23T13:51:42.687Z,6.43
2019-05-23T13:54:12.189Z,6.17
2019-05-23T13:56:42.035Z,5.47
2019-05-23T13:59:11.390Z,5.43
2019-05-23T14:01:40.725Z,5.03
2019-05-23T14:04:10.808Z,5.83
2019-05-23T14:06:40.411Z,4.73
2019-05-23T14:09:11.789Z,4.10
2019-05-23T14:11:41.273Z,4.57
2019-05-23T14:14:29.466Z,3.93
2019-05-23T14:17:16.534Z,6.17
2019-05-23T14:19:46.151Z,3.93
2019-05-23T14:22:15.721Z,2.97
2019-05-23T14:24:45.018Z,4.90
2019-05-23T14:27:45.429Z,4.20
2019-05-23T14:30:28.210Z,2.53
2019-05-23T14:32:59.858Z,5.00
2019-05-23T14:35:31.068Z,5.33
2019-05-23T14:38:02.902Z,3.57
2019-05-23T14:40:32.519Z,3.83
2019-05-23T14:43:20.752Z,3.80
2019-05-23T14:46:08.987Z,5.53
2019-05-23T14:48:51.306Z,2.93
2019-05-23T14:51:33.092Z,4.57
2019-05-23T14:54:33.831Z,3.57
2019-05-23T14:57:04.690Z,3.60
2019-05-23T14:59:34.497Z,5.53
2019-05-23T15:02:06.173Z,6.00
2019-05-23T15:04:35.696Z,3.53
2019-05-23T15:07:05.610Z,4.10
2019-05-23T15:09:34.802Z,4.80
2019-05-23T15:12:07.409Z,3.50
2019-05-23T15:14:36.844Z,4.00
2019-05-23T15:17:06.505Z,3.20
2019-05-23T15:19:44.151Z,4.67
2019-05-23T15:22:07.573Z,3.60
2019-05-23T15:24:36.853Z,4.43
2019-05-23T15:27:06.567Z,2.57
2019-05-23T15:29:35.818Z,6.00
2019-05-23T15:32:05.438Z,3.13
2019-05-23T15:34:35.499Z,5.70
2019-05-23T15:37:06.435Z,3.80
2019-05-23T15:39:35.771Z,3.67
2019-05-23T15:42:07.961Z,5.77
2019-05-23T15:44:39.972Z,3.73
2019-05-23T15:47:09.320Z,4.23
2019-05-23T15:49:40.852Z,4.23
2019-05-23T15:52:22.054Z,6.17
2019-05-23T15:55:02.305Z,3.43
2019-05-23T15:57:53.039Z,3.53
2019-05-23T16:00:41.255Z,4.17
2019-05-23T16:03:21.577Z,3.93
2019-05-23T16:05:51.676Z,2.77
2019-05-23T16:08:21.896Z,3.27
2019-05-23T16:10:52.826Z,5.97
2019-05-23T16:13:22.762Z,4.23
2019-05-23T16:15:52.118Z,3.30
2019-05-23T16:18:22.247Z,3.27
2019-05-23T16:20:51.567Z,4.17
2019-05-23T16:23:21.270Z,3.30
2019-05-23T16:25:51.537Z,4.47
2019-05-23T16:28:21.526Z,4.30
2019-05-23T16:30:53.678Z,2.97
2019-05-23T16:33:23.020Z,3.23
2019-05-23T16:35:52.220Z,3.50
2019-05-23T16:38:21.413Z,3.97
2019-05-23T16:40:50.829Z,3.73
2019-05-23T16:43:20.693Z,2.93
2019-05-23T16:45:50.246Z,14.40
2019-05-23T16:48:20.107Z,11.67
2019-05-23T16:50:49.757Z,16.30
2019-05-23T16:53:19.070Z,4.97
2019-05-23T16:56:03.953Z,5.57
2019-05-23T16:58:42.800Z,4.20
2019-05-23T17:01:56.071Z,3.57
2019-05-23T17:04:32.718Z,6.50
2019-05-23T17:07:10.709Z,2.90
2019-05-23T17:10:06.781Z,4.10
2019-05-23T17:12:37.701Z,4.73
2019-05-23T17:15:24.961Z,5.60
2019-05-23T17:18:13.060Z,4.17
2019-05-23T17:20:58.800Z,4.70
2019-05-23T17:23:45.970Z,3.67
2019-05-23T17:26:24.279Z,3.70
2019-05-23T17:28:54.876Z,4.50
2019-05-23T17:31:29.332Z,2.43
2019-05-23T17:33:59.505Z,4.23
2019-05-23T17:36:28.833Z,2.90
2019-05-23T17:38:58.642Z,3.80
2019-05-23T17:41:28.366Z,4.53
2019-05-23T17:43:57.650Z,3.87
2019-05-23T17:46:26.971Z,4.83
2019-05-23T17:48:56.798Z,4.10
2019-05-23T17:51:26.190Z,3.93
2019-05-23T17:53:55.841Z,4.30
2019-05-23T17:56:25.136Z,4.47
2019-05-23T17:58:55.566Z,4.37
2019-05-23T18:01:25.931Z,3.33
2019-05-23T18:03:55.812Z,4.20
2019-05-23T18:06:26.571Z,3.67
2019-05-23T18:08:56.833Z,2.27
2019-05-23T18:11:27.642Z,3.67
2019-05-23T18:13:57.563Z,2.57
2019-05-23T18:16:27.976Z,6.60
2019-05-23T18:18:57.720Z,3.07
2019-05-23T18:21:27.643Z,4.07
2019-05-23T18:23:58.435Z,3.37
2019-05-23T18:26:33.489Z,4.67
2019-05-23T18:29:02.341Z,3.73
2019-05-23T18:31:34.039Z,5.97
2019-05-23T18:34:05.361Z,3.50
2019-05-23T18:36:35.654Z,4.93
2019-05-23T18:39:07.407Z,3.07
2019-05-23T18:41:37.682Z,3.53
2019-05-23T18:44:09.332Z,2.73
2019-05-23T18:46:45.462Z,4.30
2019-05-23T18:49:15.732Z,5.10
2019-05-23T18:51:45.363Z,3.87
2019-05-23T18:54:14.646Z,4.33
2019-05-23T18:56:43.907Z,4.07
2019-05-23T18:59:13.573Z,3.73
2019-05-23T19:01:42.939Z,3.30
2019-05-23T19:04:14.708Z,4.10
2019-05-23T19:06:48.820Z,6.30
2019-05-23T19:09:19.028Z,4.87
2019-05-23T19:11:48.948Z,5.20
2019-05-23T19:14:19.887Z,5.77
2019-05-23T19:16:50.056Z,8.00
2019-05-23T19:19:19.986Z,6.57
2019-05-23T19:21:49.304Z,5.47
2019-05-23T19:24:19.153Z,4.30
2019-05-23T19:26:49.656Z,9.57
2019-05-23T19:29:19.671Z,10.60
2019-05-23T19:31:49.478Z,10.37
2019-05-23T19:34:19.431Z,9.07
2019-05-23T19:36:49.316Z,8.47
2019-05-23T19:39:19.820Z,9.77
2019-05-23T19:41:53.971Z,8.60
2019-05-23T19:44:21.394Z,6.77
2019-05-23T19:46:51.029Z,9.10
2019-05-23T19:49:20.592Z,6.87
2019-05-23T19:51:50.697Z,4.73
2019-05-23T19:54:20.885Z,7.13
2019-05-23T19:56:52.697Z,7.83
2019-05-23T19:59:24.589Z,5.33
2019-05-23T20:02:14.147Z,6.77
2019-05-23T20:04:49.211Z,6.77
2019-05-23T20:07:18.583Z,4.73
2019-05-23T20:09:50.958Z,4.67
2019-05-23T20:12:21.387Z,7.07
2019-05-23T20:14:51.886Z,5.27
2019-05-23T20:17:21.544Z,5.83
2019-05-23T20:19:50.942Z,6.27
2019-05-23T20:22:20.369Z,6.30
2019-05-23T20:24:50.223Z,5.07
2019-05-23T20:27:19.590Z,6.50
2019-05-23T20:29:48.884Z,7.30
2019-05-23T20:32:18.720Z,5.27
2019-05-23T20:34:48.298Z,5.77
2019-05-23T20:37:17.969Z,4.73
2019-05-23T20:39:47.560Z,8.03
2019-05-23T20:42:17.003Z,7.97
2019-05-23T20:44:48.017Z,6.87
2019-05-23T20:47:17.230Z,8.30
2019-05-23T20:49:47.048Z,7.73
2019-05-23T20:52:16.498Z,8.13
2019-05-23T20:54:46.911Z,9.63
2019-05-23T20:57:16.418Z,7.07
2019-05-23T20:59:45.834Z,8.50
2019-05-23T21:02:15.657Z,8.60
2019-05-23T21:04:45.570Z,8.90
2019-05-23T21:07:14.977Z,8.33
2019-05-23T21:09:44.362Z,7.80
2019-05-23T21:12:28.743Z,7.43
2019-05-23T21:14:45.049Z,8.33
2019-05-23T21:17:14.387Z,9.33
2019-05-23T21:19:43.994Z,6.63
2019-05-23T21:22:14.755Z,7.97
2019-05-23T21:24:44.015Z,8.10
2019-05-23T21:27:13.377Z,9.37
2019-05-23T21:29:42.846Z,9.93
2019-05-23T21:32:13.688Z,7.23
2019-05-23T21:34:45.897Z,7.30
2019-05-23T21:37:15.613Z,7.43
2019-05-23T21:39:44.818Z,8.47
2019-05-23T21:42:14.815Z,8.07
2019-05-23T21:44:44.130Z,10.30
2019-05-23T21:47:13.638Z,8.17
2019-05-23T21:49:43.475Z,8.40
2019-05-23T21:52:13.230Z,8.37
2019-05-23T21:54:42.421Z,8.23
2019-05-23T21:57:11.789Z,8.57
